Time;durP1;ratioP1;P1;durP2;ratioP2;P2;SDS_P1;SDS_P2;PMS_P1;PMS_P2;Temp;Humidity;BMP_temperature;BMP_pressure;BME280_temperature;BME280_humidity;BME280_pressure;Samples;Min_cycle;Max_cycle;Signal;HPM_P1;HPM_P2
2022/08/04 00:01:46;;;;;;;5.45;2.95;;;;;;;24.37;46.93;100091.78;5028260;28;20081;-72
2022/08/04 00:04:24;;;;;;;3.70;2.78;;;;;;;24.32;46.75;100082.47;5029259;28;20044;-72
2022/08/04 00:07:11;;;;;;;4.93;2.80;;;;;;;24.32;46.96;100085.19;5031022;28;20560;-72
2022/08/04 00:10:00;;;;;;;3.25;2.65;;;;;;;24.33;47.06;100090.44;5021740;28;20104;-72
2022/08/04 00:12:32;;;;;;;4.50;3.10;;;;;;;24.31;46.97;100092.47;5018503;28;20529;-73
2022/08/04 00:15:05;;;;;;;2.80;2.58;;;;;;;24.24;47.19;100082.47;5028380;28;20100;-72
2022/08/04 00:17:58;;;;;;;4.28;3.10;;;;;;;24.23;47.15;100089.75;5025330;28;20096;-71
2022/08/04 00:20:28;;;;;;;4.80;3.00;;;;;;;24.17;47.05;100082.25;5022976;28;20045;-72
2022/08/04 00:22:56;;;;;;;3.42;2.70;;;;;;;24.16;46.89;100085.13;5027282;28;20069;-73
2022/08/04 00:25:24;;;;;;;3.17;2.88;;;;;;;24.08;47.19;100085.97;5027371;28;20572;-72
2022/08/04 00:27:51;;;;;;;4.07;2.75;;;;;;;24.04;47.11;100081.91;5028043;28;20128;-73
2022/08/04 00:30:17;;;;;;;5.25;3.33;;;;;;;24.05;47.22;100092.56;5026936;28;20402;-76
2022/08/04 00:32:44;;;;;;;2.97;2.67;;;;;;;24.02;47.61;100089.34;5020795;28;20082;-71
2022/08/04 00:35:15;;;;;;;3.63;2.58;;;;;;;23.98;47.49;100086.09;5011594;28;20463;-72
2022/08/04 00:37:44;;;;;;;3.65;2.47;;;;;;;24.00;47.58;100088.66;5006452;28;20157;-73
2022/08/04 00:40:41;;;;;;;3.60;2.60;;;;;;;24.01;47.47;100091.19;5008057;28;20410;-72
2022/08/04 00:43:23;;;;;;;2.92;2.58;;;;;;;23.85;47.52;100066.81;5003710;28;20144;-71
2022/08/04 00:45:52;;;;;;;4.07;2.45;;;;;;;23.94;47.69;100095.56;5006710;28;20065;-72
2022/08/04 00:48:49;;;;;;;3.40;2.93;;;;;;;23.91;47.97;100089.66;5001065;28;20438;-72
2022/08/04 00:51:42;;;;;;;4.05;3.00;;;;;;;23.90;48.01;100085.25;5007157;28;20537;-72
2022/08/04 00:54:25;;;;;;;5.90;2.42;;;;;;;23.87;48.09;100078.31;5004848;28;20053;-73
2022/08/04 00:57:18;;;;;;;4.90;2.65;;;;;;;23.86;48.29;100087.44;5003839;28;20129;-73
2022/08/04 01:00:13;;;;;;;3.63;2.70;;;;;;;23.74;48.41;100078.78;5002761;28;20050;-73
2022/08/04 01:02:54;;;;;;;3.20;2.85;;;;;;;23.60;48.62;100065.91;5007404;28;20451;-73
2022/08/04 01:05:23;;;;;;;3.75;2.63;;;;;;;23.67;48.54;100079.59;5006687;28;20084;-73
2022/08/04 01:08:05;;;;;;;4.78;2.85;;;;;;;23.52;48.57;100060.44;4988318;28;20065;-73
2022/08/04 01:10:58;;;;;;;3.65;2.80;;;;;;;23.60;48.71;100078.56;5005513;28;20514;-72
2022/08/04 01:13:41;;;;;;;3.35;2.80;;;;;;;23.56;49.02;100078.03;5001739;28;20045;-73
2022/08/04 01:16:12;;;;;;;4.30;2.75;;;;;;;23.54;49.15;100084.63;5003239;28;20081;-73
2022/08/04 01:19:02;;;;;;;6.97;2.95;;;;;;;23.51;49.08;100080.38;4999640;28;20077;-72
2022/08/04 01:21:28;;;;;;;;;;;;;;;23.53;49.07;100072.13;5001459;28;20121;-73
2022/08/04 01:24:13;;;;;;;5.00;2.80;;;;;;;23.50;49.33;100075.94;5009453;28;19964;-73
2022/08/04 01:27:00;;;;;;;5.22;3.13;;;;;;;23.51;49.25;100074.09;5016330;28;20073;-73
2022/08/04 01:29:33;;;;;;;4.63;2.83;;;;;;;23.52;49.13;100071.25;5008689;28;20042;-72
2022/08/04 01:32:36;;;;;;;3.25;2.97;;;;;;;23.48;49.17;100072.56;5005221;28;20046;-73
2022/08/04 01:35:10;;;;;;;4.72;2.88;;;;;;;23.43;49.42;100077.63;5008651;28;20470;-72
2022/08/04 01:37:53;;;;;;;3.90;2.80;;;;;;;23.40;49.43;100073.38;5003812;28;20521;-72
2022/08/04 01:40:21;;;;;;;3.80;2.70;;;;;;;23.39;49.63;100065.44;5012815;28;20062;-73
2022/08/04 01:42:51;;;;;;;7.32;3.10;;;;;;;23.35;49.59;100062.22;5012750;28;20129;-72
2022/08/04 01:45:18;;;;;;;5.28;2.78;;;;;;;23.38;49.67;100070.00;5016156;28;20045;-73
2022/08/04 01:47:53;;;;;;;3.53;2.75;;;;;;;23.29;49.79;100060.16;5015620;28;20076;-73
2022/08/04 01:50:21;;;;;;;5.10;2.78;;;;;;;23.23;50.13;100063.50;5012436;28;20137;-72
2022/08/04 01:52:51;;;;;;;5.18;2.90;;;;;;;23.27;49.68;100070.28;5013685;28;20613;-71
2022/08/04 01:55:18;;;;;;;;;;;;;;;23.27;49.94;100073.00;5014802;28;20073;-73
2022/08/04 01:57:52;;;;;;;5.50;2.83;;;;;;;23.24;49.94;100067.91;5014120;28;19925;-72
2022/08/04 02:00:23;;;;;;;4.38;2.75;;;;;;;23.21;50.14;100057.41;5012621;28;20069;-72
2022/08/04 02:02:50;;;;;;;3.35;3.00;;;;;;;23.16;50.28;100065.13;5012854;28;20041;-72
2022/08/04 02:05:18;;;;;;;3.40;2.60;;;;;;;23.18;50.46;100063.13;5009554;28;20577;-71
2022/08/04 02:08:06;;;;;;;3.30;3.00;;;;;;;23.04;50.14;100050.22;5008248;28;20561;-73
2022/08/04 02:11:08;;;;;;;4.15;2.70;;;;;;;23.10;50.51;100065.81;5006749;28;20529;-74
2022/08/04 02:13:52;;;;;;;4.40;2.70;;;;;;;23.01;50.72;100062.19;5005856;28;20533;-73
2022/08/04 02:16:32;;;;;;;4.18;2.58;;;;;;;22.95;50.74;100062.00;5003956;28;20049;-73
2022/08/04 02:19:01;;;;;;;;;;;;;;;22.92;51.23;100063.16;5010783;28;20081;-72
2022/08/04 02:21:30;;;;;;;3.63;2.70;;;;;;;22.80;50.98;100039.28;5006063;28;19924;-73
2022/08/04 02:24:13;;;;;;;4.60;2.60;;;;;;;22.90;50.71;100061.63;5011453;28;20174;-72
2022/08/04 02:26:47;;;;;;;3.33;2.85;;;;;;;22.83;50.35;100038.94;5006145;28;20096;-74
2022/08/04 02:29:22;;;;;;;2.90;2.70;;;;;;;22.90;50.61;100053.53;5030928;28;20454;-72
2022/08/04 02:31:59;;;;;;;2.45;2.25;;;;;;;22.96;50.80;100061.00;5030614;28;20128;-72
2022/08/04 02:34:47;;;;;;;4.85;2.60;;;;;;;23.03;50.08;100067.44;5034358;28;20080;-71
2022/08/04 02:37:16;;;;;;;3.15;2.72;;;;;;;23.06;49.63;100057.16;5026109;28;20165;-73
2022/08/04 02:39:44;;;;;;;3.92;2.40;;;;;;;23.08;49.54;100055.16;5014036;28;20048;-72
2022/08/04 02:42:15;;;;;;;3.67;3.00;;;;;;;23.08;49.46;100057.84;5034987;28;20054;-71
2022/08/04 02:44:42;;;;;;;4.38;2.90;;;;;;;23.07;49.92;100060.72;5024447;28;20460;-72
2022/08/04 02:47:10;;;;;;;4.05;2.38;;;;;;;23.00;50.15;100059.66;5025438;28;20053;-71
2022/08/04 02:49:37;;;;;;;3.75;2.33;;;;;;;22.95;50.29;100054.75;5024175;28;20069;-72
2022/08/04 02:52:09;;;;;;;3.00;2.80;;;;;;;22.86;49.88;100038.63;5031216;28;20046;-73
2022/08/04 02:54:39;;;;;;;3.28;2.50;;;;;;;22.91;49.93;100039.88;5035243;28;20440;-72
2022/08/04 02:57:10;;;;;;;3.30;2.70;;;;;;;22.99;50.21;100047.16;5030845;28;20041;-72
2022/08/04 03:00:13;;;;;;;5.93;2.75;;;;;;;23.00;50.30;100052.41;5024359;28;20076;-72
2022/08/04 03:03:05;;;;;;;4.82;2.70;;;;;;;22.95;50.29;100052.03;5030197;28;20140;-72
2022/08/04 03:06:10;;;;;;;5.63;2.63;;;;;;;22.85;50.41;100045.03;5026286;28;20056;-72
2022/08/04 03:08:55;;;;;;;3.60;2.72;;;;;;;22.81;50.84;100044.53;5025796;28;20091;-71
2022/08/04 03:11:38;;;;;;;3.70;2.90;;;;;;;22.75;51.20;100053.22;5012078;28;20208;-72
2022/08/04 03:14:27;;;;;;;3.42;2.85;;;;;;;22.67;51.34;100045.91;5032243;28;20445;-72
2022/08/04 03:17:16;;;;;;;2.95;2.63;;;;;;;22.66;51.32;100057.72;5028644;28;20145;-73
2022/08/04 03:20:04;;;;;;;4.75;2.78;;;;;;;22.68;51.50;100050.28;5027172;28;20467;-73
2022/08/04 03:23:06;;;;;;;5.75;2.80;;;;;;;22.66;51.22;100052.34;5008344;28;20092;-72
2022/08/04 03:26:01;;;;;;;3.13;2.83;;;;;;;22.64;51.38;100050.78;5032084;28;20064;-72
2022/08/04 03:28:36;;;;;;;2.63;2.42;;;;;;;22.60;51.27;100044.00;5034118;28;20045;-72
2022/08/04 03:31:16;;;;;;;2.95;2.65;;;;;;;22.57;51.41;100055.97;5037007;28;20572;-73
2022/08/04 03:34:01;;;;;;;3.15;2.85;;;;;;;22.55;51.73;100054.41;5033539;28;20049;-72
2022/08/04 03:37:02;;;;;;;5.70;3.10;;;;;;;22.47;52.01;100055.22;5029358;28;20049;-72
2022/08/04 03:39:34;;;;;;;;;;;;;;;22.45;52.18;100059.91;5027589;28;20045;-72
2022/08/04 03:42:25;;;;;;;3.95;2.85;;;;;;;22.28;52.21;100036.50;5039878;28;20003;-73
2022/08/04 03:45:32;;;;;;;3.88;3.08;;;;;;;22.39;52.30;100068.63;5023885;28;20057;-74
2022/08/04 03:48:15;;;;;;;4.25;3.20;;;;;;;22.36;52.52;100069.78;5019187;28;20041;-72
2022/08/04 03:54:30;;;;;;;3.25;2.90;;;;;;;22.35;52.46;100069.97;5031261;28;20100;-72
2022/08/04 03:57:16;;;;;;;5.10;2.97;;;;;;;22.34;52.65;100070.97;5025610;28;20077;-72
2022/08/04 03:59:49;;;;;;;5.22;3.10;;;;;;;22.32;52.92;100070.25;5018808;28;20560;-72
2022/08/04 04:02:33;;;;;;;4.07;2.83;;;;;;;22.24;53.05;100068.31;5022894;28;20076;-73
2022/08/04 04:05:17;;;;;;;4.70;3.20;;;;;;;22.21;53.84;100065.09;5026676;28;20053;-73
2022/08/04 04:08:08;;;;;;;4.18;3.28;;;;;;;22.07;53.86;100057.53;5018243;28;20064;-72
2022/08/04 04:11:06;;;;;;;3.35;2.90;;;;;;;22.12;54.20;100074.09;5025219;28;20050;-71
2022/08/04 04:14:02;;;;;;;3.10;2.75;;;;;;;22.08;54.35;100072.72;5026782;28;20053;-72
2022/08/04 04:17:00;;;;;;;4.88;2.95;;;;;;;22.12;54.06;100077.66;5025805;28;20041;-71
2022/08/04 04:19:45;;;;;;;5.32;3.20;;;;;;;22.10;54.20;100070.72;5029870;28;20512;-72
2022/08/04 04:22:32;;;;;;;3.42;3.10;;;;;;;22.06;54.46;100072.88;5022904;28;20053;-71
2022/08/04 04:25:06;;;;;;;4.85;3.00;;;;;;;21.96;54.98;100070.22;5021983;28;20484;-73
2022/08/04 04:27:32;;;;;;;4.82;3.08;;;;;;;21.88;55.46;100072.00;5023184;28;20157;-71
2022/08/04 04:30:05;;;;;;;4.05;3.15;;;;;;;21.80;55.85;100072.75;5026834;28;20471;-74
2022/08/04 04:32:32;;;;;;;3.25;2.83;;;;;;;21.75;56.11;100080.41;5022016;28;20045;-72
2022/08/04 04:35:17;;;;;;;5.50;3.50;;;;;;;21.68;56.70;100069.41;5031083;28;20068;-71
2022/08/04 04:38:04;;;;;;;4.50;3.00;;;;;;;21.65;56.87;100069.72;5026481;28;20053;-72
2022/08/04 04:40:46;;;;;;;10.02;3.30;;;;;;;21.66;57.11;100078.63;5023989;28;20084;-72
2022/08/04 04:43:18;;;;;;;3.45;3.15;;;;;;;21.53;57.08;100048.50;5035884;28;20131;-72
2022/08/04 04:46:09;;;;;;;4.47;3.28;;;;;;;21.64;57.39;100069.84;5017985;28;20628;-71
2022/08/04 04:48:59;;;;;;;3.92;3.35;;;;;;;21.70;57.26;100072.81;5029819;28;20489;-71
2022/08/04 04:51:50;;;;;;;5.63;3.90;;;;;;;21.74;57.31;100083.25;5028427;28;20084;-71
2022/08/04 04:54:33;;;;;;;6.22;3.15;;;;;;;21.65;56.94;100048.16;5033037;28;20045;-71
2022/08/04 04:57:06;;;;;;;6.90;3.88;;;;;;;21.83;57.06;100069.75;5032510;28;20128;-72
2022/08/04 04:59:36;;;;;;;4.45;3.40;;;;;;;21.93;56.56;100080.44;5027596;28;20128;-71
2022/08/04 05:02:41;;;;;;;5.40;2.78;;;;;;;22.01;56.63;100081.44;5035178;28;20472;-73
2022/08/04 05:05:26;;;;;;;5.30;3.45;;;;;;;22.05;56.20;100077.41;5020595;28;20144;-71
2022/08/04 05:08:29;;;;;;;4.32;2.75;;;;;;;22.13;56.24;100083.91;5026116;28;20076;-73
2022/08/04 05:11:46;;;;;;;4.13;3.30;;;;;;;22.17;56.14;100086.13;5027978;28;20049;-72
2022/08/04 05:14:19;;;;;;;3.60;3.30;;;;;;;22.30;55.95;100083.06;5031107;28;20052;-72
2022/08/04 05:17:32;;;;;;;3.58;3.05;;;;;;;22.28;55.22;100058.06;5026853;28;20049;-72
2022/08/04 05:20:12;;;;;;;3.50;3.05;;;;;;;22.41;55.15;100061.22;5031171;28;20049;-71
2022/08/04 05:22:46;;;;;;;4.50;3.05;;;;;;;22.61;54.78;100088.88;5026830;28;20405;-74
2022/08/04 05:25:20;;;;;;;5.25;3.30;;;;;;;22.66;54.62;100090.13;5030651;28;20085;-74
2022/08/04 05:28:04;;;;;;;5.00;3.30;;;;;;;22.59;54.79;100058.50;5017348;28;20084;-73
2022/08/04 05:30:35;;;;;;;4.75;3.40;;;;;;;22.75;54.69;100088.31;5031730;28;20048;-74
2022/08/04 05:33:08;;;;;;;6.30;3.20;;;;;;;22.78;54.39;100087.19;5026669;28;20053;-73
2022/08/04 05:35:46;;;;;;;5.65;3.50;;;;;;;22.72;54.45;100067.88;5028627;28;20080;-72
2022/08/04 05:38:37;;;;;;;4.63;3.30;;;;;;;22.90;54.03;100088.63;5021253;28;20061;-73
2022/08/04 05:41:05;;;;;;;6.78;3.15;;;;;;;22.99;54.21;100090.34;5019944;28;20042;-73
2022/08/04 05:43:33;;;;;;;4.95;3.28;;;;;;;23.02;53.89;100076.53;5021409;28;20080;-71
2022/08/04 05:46:00;;;;;;;3.45;3.08;;;;;;;23.04;53.55;100075.38;5013756;28;20136;-74
2022/08/04 05:48:29;;;;;;;5.55;3.10;;;;;;;23.22;53.71;100093.38;5010854;28;20058;-74
2022/08/04 05:50:56;;;;;;;3.65;3.20;;;;;;;23.36;52.97;100099.03;5020878;28;20045;-72
2022/08/04 05:53:27;;;;;;;5.10;2.75;;;;;;;23.53;52.63;100089.16;5025295;28;20049;-74
2022/08/04 05:55:55;;;;;;;4.93;3.40;;;;;;;23.66;52.33;100088.72;5029816;28;20360;-72
2022/08/04 05:58:28;;;;;;;4.55;3.03;;;;;;;23.76;52.02;100086.75;5023923;28;20222;-75
2022/08/04 06:00:55;;;;;;;5.55;3.20;;;;;;;23.87;50.98;100093.69;5025757;28;20048;-73
2022/08/04 06:03:24;;;;;;;4.90;3.13;;;;;;;23.99;50.25;100095.06;5027564;28;20046;-73
2022/08/04 06:05:52;;;;;;;5.50;3.25;;;;;;;24.08;50.30;100094.09;5027904;28;20119;-73
2022/08/04 06:08:19;;;;;;;4.80;3.13;;;;;;;24.19;50.36;100095.63;5033333;28;20076;-73
2022/08/04 06:10:48;;;;;;;6.40;3.22;;;;;;;24.25;50.76;100084.16;5029639;28;20049;-73
2022/08/04 06:13:19;;;;;;;7.22;3.17;;;;;;;24.23;50.45;100069.94;5021436;28;20497;-73
2022/08/04 06:16:07;;;;;;;5.50;2.88;;;;;;;24.45;50.11;100090.94;5020255;28;20606;-74
2022/08/04 06:18:57;;;;;;;7.30;2.85;;;;;;;24.55;49.84;100080.81;5018957;28;20053;-73
2022/08/04 06:21:47;;;;;;;3.22;2.90;;;;;;;24.74;48.88;100076.88;5030629;28;20048;-74
2022/08/04 06:24:22;;;;;;;5.15;2.60;;;;;;;25.18;48.45;100089.03;5022501;28;20140;-73
2022/08/04 06:26:50;;;;;;;5.53;2.97;;;;;;;25.64;47.24;100083.00;5022183;28;20480;-71
2022/08/04 06:29:25;;;;;;;99.97;10.43;;;;;;;25.99;46.41;100074.28;5021803;28;20041;-74
2022/08/04 06:32:01;;;;;;;20.45;5.18;;;;;;;26.29;45.45;100090.78;5016267;28;20037;-74
2022/08/04 06:34:48;;;;;;;6.90;2.83;;;;;;;26.53;45.42;100077.00;4996520;28;20041;-74
2022/08/04 06:37:17;;;;;;;8.00;3.30;;;;;;;26.95;44.23;100086.50;4994718;28;20144;-73
2022/08/04 06:40:06;;;;;;;5.20;3.05;;;;;;;27.26;42.59;100065.44;5005928;28;20052;-73
2022/08/04 06:42:54;;;;;;;5.40;2.70;;;;;;;27.71;42.54;100096.19;5006882;28;20045;-73
2022/08/04 06:45:22;;;;;;;5.18;2.80;;;;;;;27.92;42.65;100088.94;4988606;28;20697;-74
2022/08/04 06:47:50;;;;;;;5.78;2.83;;;;;;;28.04;42.29;100086.53;4999497;28;20073;-73
2022/08/04 06:50:18;;;;;;;3.45;3.00;;;;;;;28.46;41.95;100091.22;5004668;28;20077;-74
2022/08/04 06:53:05;;;;;;;3.78;2.88;;;;;;;28.71;41.39;100093.53;5003332;28;20052;-73
2022/08/04 06:55:33;;;;;;;8.73;3.13;;;;;;;28.71;41.07;100080.75;5002079;28;20100;-73
2022/08/04 06:58:01;;;;;;;6.25;2.85;;;;;;;28.47;41.06;100070.28;5003845;28;20093;-74
2022/08/04 07:00:30;;;;;;;6.47;2.90;;;;;;;28.66;40.51;100074.19;4990515;28;20034;-73
2022/08/04 07:02:58;;;;;;;3.00;2.72;;;;;;;28.88;39.34;100082.19;5009812;28;20145;-72
2022/08/04 07:05:25;;;;;;;4.75;2.95;;;;;;;29.23;38.93;100095.84;5005315;28;20108;-74
2022/08/04 07:07:52;;;;;;;4.75;3.00;;;;;;;29.49;38.35;100093.31;5013871;28;20088;-74
2022/08/04 07:10:26;;;;;;;8.10;2.90;;;;;;;29.82;38.13;100087.16;5008089;28;20093;-73
2022/08/04 07:12:58;;;;;;;5.53;3.42;;;;;;;30.24;36.96;100089.63;5002264;28;20033;-75
2022/08/04 07:15:25;;;;;;;3.78;2.90;;;;;;;30.41;36.00;100095.53;5005874;28;20050;-74
2022/08/04 07:17:53;;;;;;;4.18;2.92;;;;;;;30.39;35.44;100086.69;5004815;28;20112;-74
2022/08/04 07:20:20;;;;;;;3.47;2.60;;;;;;;30.56;35.84;100090.75;5007192;28;20046;-74
2022/08/04 07:23:05;;;;;;;6.75;3.30;;;;;;;30.38;36.10;100068.63;5002734;28;20498;-74
2022/08/04 07:25:35;;;;;;;5.72;2.90;;;;;;;30.19;37.11;100083.09;5013702;28;20616;-73
2022/08/04 07:28:28;;;;;;;4.88;3.03;;;;;;;30.45;37.06;100082.31;5001198;28;20168;-73
2022/08/04 07:30:56;;;;;;;4.95;2.90;;;;;;;30.82;35.45;100083.63;5014015;28;20829;-73
2022/08/04 07:33:24;;;;;;;5.07;3.03;;;;;;;31.00;34.58;100079.19;5020404;28;20076;-71
2022/08/04 07:35:53;;;;;;;4.40;2.80;;;;;;;30.65;35.90;100069.53;5032556;28;20041;-72
2022/08/04 07:38:43;;;;;;;5.45;3.17;;;;;;;30.40;36.59;100084.81;5045931;28;20056;-73
2022/08/04 07:41:20;;;;;;;9.13;2.95;;;;;;;30.73;35.38;100085.72;5030744;28;20108;-73
2022/08/04 07:44:03;;;;;;;6.70;3.45;;;;;;;31.15;34.70;100075.41;5034471;28;20041;-76
2022/08/04 07:46:30;;;;;;;6.60;2.72;;;;;;;31.38;34.26;100087.56;5039170;28;20101;-74
2022/08/04 07:48:59;;;;;;;9.27;3.10;;;;;;;31.10;35.00;100081.53;5024713;28;20485;-71
2022/08/04 07:51:27;;;;;;;10.60;3.57;;;;;;;30.63;36.09;100080.69;5028094;28;20167;-73
2022/08/04 07:53:56;;;;;;;8.48;3.17;;;;;;;30.67;36.23;100087.41;5029854;28;20122;-73
2022/08/04 07:56:24;;;;;;;5.97;2.83;;;;;;;30.84;35.97;100084.25;5029140;28;20120;-73
2022/08/04 07:58:51;;;;;;;5.53;3.03;;;;;;;31.16;34.50;100080.69;5032288;28;20045;-74
2022/08/04 08:01:18;;;;;;;6.60;2.85;;;;;;;31.50;34.65;100079.50;5027860;28;20465;-73
2022/08/04 08:03:46;;;;;;;7.57;2.90;;;;;;;31.77;33.89;100076.72;5032031;28;20437;-74
2022/08/04 08:06:13;;;;;;;9.23;3.10;;;;;;;31.92;33.14;100072.66;5029638;28;20064;-73
2022/08/04 08:08:59;;;;;;;5.68;3.10;;;;;;;32.03;33.48;100084.81;5025404;28;20132;-75
2022/08/04 08:11:43;;;;;;;6.78;3.20;;;;;;;31.42;33.68;100081.66;5033282;28;20123;-73
2022/08/04 08:14:30;;;;;;;6.07;2.92;;;;;;;30.78;35.30;100071.41;5028476;28;20066;-74
2022/08/04 08:16:59;;;;;;;3.85;2.85;;;;;;;31.01;35.85;100071.81;5030834;28;20107;-74
2022/08/04 08:19:25;;;;;;;6.95;3.15;;;;;;;31.31;34.73;100061.28;5026779;28;20053;-72
2022/08/04 08:21:52;;;;;;;6.38;3.40;;;;;;;31.02;34.70;100046.13;5034824;28;20084;-74
2022/08/04 08:24:29;;;;;;;8.95;2.78;;;;;;;31.02;36.47;100073.50;5024974;28;20054;-74
2022/08/04 08:26:58;;;;;;;7.07;3.28;;;;;;;31.11;36.16;100058.59;5029540;28;20119;-76
2022/08/04 08:29:26;;;;;;;6.07;3.15;;;;;;;31.32;35.21;100068.44;5030590;28;20049;-74
2022/08/04 08:31:53;;;;;;;5.63;2.90;;;;;;;31.28;34.73;100059.81;5035782;28;20380;-75
2022/08/04 08:34:24;;;;;;;4.10;2.63;;;;;;;31.55;34.59;100074.25;5030965;28;20042;-74
2022/08/04 08:36:57;;;;;;;9.95;2.95;;;;;;;31.92;34.15;100069.06;5025538;28;20584;-73
2022/08/04 08:39:29;;;;;;;4.60;2.90;;;;;;;32.00;33.91;100050.47;5037574;28;20485;-71
2022/08/04 08:42:21;;;;;;;5.97;3.13;;;;;;;32.03;34.28;100057.41;5025441;28;20053;-74
2022/08/04 08:45:07;;;;;;;4.38;2.70;;;;;;;31.64;33.95;100037.34;5028860;28;20071;-74
2022/08/04 08:47:48;;;;;;;7.70;2.95;;;;;;;32.01;33.22;100056.78;5031704;28;20151;-73
2022/08/04 08:51:06;;;;;;;6.47;3.00;;;;;;;32.35;32.76;100055.56;5033281;28;20560;-75
2022/08/04 08:54:07;;;;;;;5.80;3.17;;;;;;;32.51;31.95;100062.41;5025317;28;20263;-74
2022/08/04 08:56:53;;;;;;;6.00;3.15;;;;;;;32.72;31.91;100067.50;5047947;28;20096;-74
2022/08/04 08:59:49;;;;;;;8.15;2.60;;;;;;;33.03;32.01;100072.94;5025121;28;20076;-73
2022/08/04 09:02:43;;;;;;;4.22;2.55;;;;;;;33.31;31.04;100068.88;5026075;28;20079;-73
2022/08/04 09:05:47;;;;;;;4.45;2.95;;;;;;;33.32;31.57;100059.59;5034523;28;20124;-73
2022/08/04 09:08:38;;;;;;;7.40;3.13;;;;;;;33.59;30.69;100060.09;5033611;28;20073;-73
2022/08/04 09:11:11;;;;;;;8.05;2.80;;;;;;;33.93;30.09;100059.47;5030342;28;20038;-73
2022/08/04 09:13:53;;;;;;;5.43;3.00;;;;;;;34.16;30.46;100061.47;5035120;28;20091;-74
2022/08/04 09:16:39;;;;;;;8.80;3.13;;;;;;;34.32;29.70;100060.00;5034489;28;20098;-75
2022/08/04 09:19:22;;;;;;;8.40;2.53;;;;;;;33.56;30.39;100036.69;5032307;28;20363;-74
2022/08/04 09:22:24;;;;;;;5.72;2.85;;;;;;;32.97;31.27;100062.88;5032692;28;20065;-71
2022/08/04 09:25:24;;;;;;;9.55;3.35;;;;;;;32.25;32.22;100058.78;5029341;28;20053;-73
2022/08/04 09:27:54;;;;;;;4.57;2.42;;;;;;;32.10;33.14;100049.16;5007966;28;20045;-74
2022/08/04 09:30:31;;;;;;;5.03;3.42;;;;;;;32.24;32.43;100057.13;5021382;28;20038;-74
2022/08/04 09:33:04;;;;;;;6.60;3.28;;;;;;;32.41;31.57;100058.25;5017206;28;20561;-74
2022/08/04 09:35:53;;;;;;;7.47;2.80;;;;;;;32.46;31.83;100054.81;5025543;28;20080;-74
2022/08/04 09:38:38;;;;;;;;;;;;;;;32.54;31.50;100056.47;5031498;28;20069;-71
2022/08/04 09:41:24;;;;;;;5.35;3.38;;;;;;;32.60;32.18;100061.03;5029149;28;19921;-73
2022/08/04 09:44:22;;;;;;;5.10;2.92;;;;;;;32.40;31.88;100062.06;5027576;28;20051;-75
2022/08/04 09:47:23;;;;;;;6.35;3.08;;;;;;;32.29;32.52;100048.22;5029940;28;20057;-75
2022/08/04 09:50:12;;;;;;;7.13;3.35;;;;;;;32.34;32.02;100048.41;5030464;28;20131;-74
2022/08/04 09:52:48;;;;;;;4.78;2.90;;;;;;;32.37;32.25;100050.69;5033148;28;21270;-72
2022/08/04 09:55:28;;;;;;;7.15;2.95;;;;;;;32.40;31.89;100045.63;5030370;28;20045;-74
2022/08/04 09:58:04;;;;;;;4.18;3.42;;;;;;;32.45;32.09;100044.09;5030206;28;20076;-74
2022/08/04 10:00:42;;;;;;;4.07;3.03;;;;;;;32.39;31.68;100038.47;5029210;28;20049;-72
2022/08/04 10:03:12;;;;;;;6.80;2.95;;;;;;;32.47;31.68;100045.53;5029374;28;20049;-73
2022/08/04 10:06:05;;;;;;;6.45;3.15;;;;;;;32.56;31.71;100018.72;5028950;28;20096;-72
2022/08/04 10:09:00;;;;;;;5.72;2.80;;;;;;;32.83;31.00;100033.03;5031163;28;20068;-73
2022/08/04 10:11:56;;;;;;;4.30;3.30;;;;;;;32.91;31.12;100033.59;5032951;28;20120;-72
2022/08/04 10:15:06;;;;;;;5.60;2.80;;;;;;;33.04;31.87;100030.72;5004751;28;20105;-77
2022/08/04 10:17:55;;;;;;;6.32;3.00;;;;;;;33.21;30.34;100032.88;5028879;28;20415;-74
2022/08/04 10:20:50;;;;;;;6.60;2.50;;;;;;;33.27;30.62;100023.75;5011588;28;20575;-72
2022/08/04 10:23:31;;;;;;;4.00;2.50;;;;;;;33.15;30.67;100003.59;5027633;28;20083;-73
2022/08/04 10:26:33;;;;;;;3.78;2.90;;;;;;;33.30;30.41;100023.28;5024530;28;20041;-74
2022/08/04 10:29:13;;;;;;;5.13;2.85;;;;;;;33.47;29.90;100018.03;5025435;28;20045;-71
2022/08/04 10:32:00;;;;;;;;;;;;;;;33.74;30.03;100028.44;5026832;28;20092;-73
2022/08/04 10:34:30;;;;;;;4.13;3.40;;;;;;;34.03;29.63;100013.03;5011774;28;19964;-74
2022/08/04 10:37:12;;;;;;;5.10;3.05;;;;;;;34.34;28.83;100014.69;5030138;28;20088;-73
2022/08/04 10:42:49;;;;;;;3.53;2.75;;;;;;;34.47;28.57;100000.72;5034970;28;20049;-73
2022/08/04 10:45:24;;;;;;;4.15;2.70;;;;;;;34.64;28.85;100002.78;5034431;28;20084;-73
2022/08/04 10:48:01;;;;;;;3.45;2.97;;;;;;;34.71;29.11;100006.25;5015634;28;20083;-74
2022/08/04 10:50:28;;;;;;;2.90;2.28;;;;;;;34.71;28.26;99998.84;5035873;28;20049;-74
2022/08/04 10:53:04;;;;;;;3.55;2.38;;;;;;;34.68;28.54;99987.47;5037962;28;20091;-75
2022/08/04 10:56:14;;;;;;;5.63;2.28;;;;;;;34.77;28.33;99997.94;5034969;28;20049;-73
2022/08/04 10:58:54;;;;;;;4.07;3.38;;;;;;;34.96;28.28;99995.88;5025054;28;20094;-74
2022/08/04 11:01:30;;;;;;;3.95;2.42;;;;;;;35.12;27.27;99991.53;5028822;28;20111;-71
2022/08/04 11:04:36;;;;;;;3.15;2.65;;;;;;;35.15;27.20;99991.06;5029969;28;20159;-72
2022/08/04 11:07:03;;;;;;;4.32;2.60;;;;;;;35.26;26.96;99989.38;5031203;28;20045;-74
2022/08/04 11:09:32;;;;;;;4.45;2.80;;;;;;;35.38;26.69;99988.31;5026682;28;20041;-75
2022/08/04 11:12:08;;;;;;;6.18;2.72;;;;;;;35.46;27.03;99984.31;5027028;28;20050;-74
2022/08/04 11:14:50;;;;;;;2.88;2.47;;;;;;;35.46;27.36;99978.81;5034259;28;20084;-73
2022/08/04 11:17:25;;;;;;;4.57;2.75;;;;;;;35.65;27.19;99985.81;5037090;28;20056;-72
2022/08/04 11:20:23;;;;;;;6.68;3.08;;;;;;;35.67;26.07;99980.06;5028865;28;20069;-74
2022/08/04 11:23:10;;;;;;;2.38;2.03;;;;;;;35.50;26.88;99980.00;5028186;28;20061;-71
2022/08/04 11:25:51;;;;;;;2.38;2.15;;;;;;;35.60;26.15;99979.34;5031218;28;20065;-74
2022/08/04 11:28:49;;;;;;;5.05;2.33;;;;;;;35.64;26.11;99969.53;5027421;28;20487;-74
2022/08/04 11:31:38;;;;;;;1.75;1.65;;;;;;;35.88;25.14;99975.81;5035602;28;20053;-75
2022/08/04 11:34:16;;;;;;;3.53;2.33;;;;;;;35.94;25.13;99955.50;5005331;28;20049;-73
2022/08/04 11:36:48;;;;;;;3.17;2.00;;;;;;;36.07;24.88;99985.50;5006319;28;20073;-72
2022/08/04 11:39:26;;;;;;;2.63;1.30;;;;;;;35.99;23.45;99983.16;5011295;28;20108;-73
2022/08/04 11:42:09;;;;;;;2.33;1.45;;;;;;;36.11;23.03;99982.00;5004911;28;20494;-73
2022/08/04 11:45:14;;;;;;;1.35;1.23;;;;;;;35.96;24.19;99983.66;5007484;28;20450;-72
2022/08/04 11:47:54;;;;;;;2.20;1.55;;;;;;;35.86;23.72;99978.81;5008840;28;20065;-72
2022/08/04 11:50:31;;;;;;;4.13;1.55;;;;;;;35.89;23.37;99994.00;5023390;28;20096;-73
2022/08/04 11:52:59;;;;;;;5.80;1.60;;;;;;;35.93;22.88;99984.16;5010829;28;20148;-73
2022/08/04 11:55:27;;;;;;;3.00;1.65;;;;;;;35.87;22.61;99990.66;5012586;28;20045;-72
2022/08/04 11:57:55;;;;;;;3.13;1.35;;;;;;;35.66;23.76;99986.63;5002481;28;20079;-72
2022/08/04 12:00:24;;;;;;;3.28;1.40;;;;;;;35.49;23.45;99981.91;5007338;28;20094;-72
2022/08/04 12:02:57;;;;;;;2.92;1.15;;;;;;;35.39;23.51;99972.63;5005782;28;20383;-75
2022/08/04 12:05:32;;;;;;;3.42;1.25;;;;;;;35.40;23.24;99968.78;5003559;28;20124;-74
2022/08/04 12:08:08;;;;;;;3.65;1.95;;;;;;;35.51;24.07;99976.16;5010716;28;20053;-74
2022/08/04 12:10:49;;;;;;;3.42;1.50;;;;;;;35.64;24.01;99978.63;5017432;28;20050;-75
2022/08/04 12:13:49;;;;;;;2.95;1.60;;;;;;;35.70;23.83;99974.91;5008685;28;20053;-74
2022/08/04 12:16:21;;;;;;;4.75;2.03;;;;;;;35.97;23.65;99968.78;5005468;28;20070;-74
2022/08/04 12:18:56;;;;;;;1.83;1.20;;;;;;;36.23;23.21;99968.16;5004277;28;20132;-75
2022/08/04 12:21:40;;;;;;;3.08;1.58;;;;;;;36.39;22.41;99964.56;5003927;28;20057;-74
2022/08/04 12:24:19;;;;;;;2.35;1.33;;;;;;;36.25;22.67;99963.25;5003698;28;20101;-75
2022/08/04 12:26:58;;;;;;;2.85;1.25;;;;;;;36.36;22.14;99967.03;5007700;28;20080;-74
2022/08/04 12:29:30;;;;;;;2.40;1.20;;;;;;;36.41;21.23;99961.56;5004875;28;20683;-73
2022/08/04 12:32:03;;;;;;;3.90;1.15;;;;;;;36.57;20.62;99955.22;5006657;28;20106;-73